Time;durP1;ratioP1;P1;durP2;ratioP2;P2;SDS_P1;SDS_P2;PMS_P1;PMS_P2;Temp;Humidity;BMP_temperature;BMP_pressure;BME280_temperature;BME280_humidity;BME280_pressure;Samples;Min_cycle;Max_cycle;Signal;HPM_P1;HPM_P2
2021/03/24 00:02:02;;;;;;;;;38.50;30.50;;;;;24.71;54.67;99160.75;5049291;28;10343;-77
2021/03/24 00:04:31;;;;;;;;;36.25;32.00;;;;;24.76;54.55;99161.63;5041145;28;10283;-77
2021/03/24 00:06:59;;;;;;;;;34.00;28.75;;;;;24.53;53.00;99138.00;5048920;28;10236;-76
2021/03/24 00:09:27;;;;;;;;;34.00;31.00;;;;;24.73;53.40;99158.47;5033130;28;11131;-77
2021/03/24 00:11:55;;;;;;;;;34.25;32.00;;;;;24.78;53.59;99165.53;5031624;28;10273;-77
2021/03/24 00:14:23;;;;;;;;;41.25;33.25;;;;;24.80;53.31;99165.97;5034181;28;10411;-77
2021/03/24 00:16:52;;;;;;;;;34.25;31.75;;;;;24.80;52.83;99171.34;5045363;28;10504;-78
2021/03/24 00:19:20;;;;;;;;;35.25;29.75;;;;;24.76;54.26;99170.50;5051847;28;10368;-78
2021/03/24 00:22:00;;;;;;;;;24.75;24.75;;;;;24.75;53.23;99176.22;5049765;28;10461;-76
2021/03/24 00:24:32;;;;;;;;;31.25;26.75;;;;;24.83;52.58;99188.75;5036815;28;10829;-75
2021/03/24 00:27:00;;;;;;;;;24.25;24.00;;;;;24.77;53.05;99182.06;5048322;28;10118;-77
2021/03/24 00:29:28;;;;;;;;;24.75;22.00;;;;;24.67;53.27;99165.31;5042652;28;10149;-76
2021/03/24 00:31:56;;;;;;;;;28.00;25.00;;;;;24.81;52.75;99189.09;5040358;28;9869;-77
2021/03/24 00:34:25;;;;;;;;;24.50;20.25;;;;;24.89;52.41;99198.94;5039588;28;9871;-78
2021/03/24 00:36:54;;;;;;;;;27.00;25.00;;;;;24.87;52.73;99189.63;5056461;28;9847;-76
2021/03/24 00:39:22;;;;;;;;;25.25;22.50;;;;;24.93;52.55;99202.50;5038694;28;10028;-76
2021/03/24 00:41:54;;;;;;;;;21.75;21.75;;;;;24.90;51.94;99200.50;5038632;28;10097;-79
2021/03/24 00:44:24;;;;;;;;;19.00;19.00;;;;;24.89;52.15;99193.53;5037685;28;9778;-78
2021/03/24 00:46:56;;;;;;;;;21.00;21.00;;;;;24.54;51.91;99154.97;5042203;28;9950;-80
2021/03/24 00:49:26;;;;;;;;;23.25;22.75;;;;;24.94;51.80;99205.97;5039720;28;9617;-78
2021/03/24 00:51:55;;;;;;;;;21.75;21.75;;;;;24.93;52.04;99216.00;5038702;28;9609;-76
2021/03/24 00:54:24;;;;;;;;;42.75;35.25;;;;;24.86;52.07;99210.44;5054962;28;9791;-83
2021/03/24 00:56:52;;;;;;;;;23.50;23.50;;;;;24.88;51.81;99216.25;5038559;28;10359;-83
2021/03/24 00:59:21;;;;;;;;;30.50;23.75;;;;;24.40;51.93;99152.72;5039377;28;9795;-76
2021/03/24 01:01:51;;;;;;;;;20.00;20.00;;;;;24.68;51.76;99201.94;5039168;28;10239;-80
2021/03/24 01:04:20;;;;;;;;;25.25;21.75;;;;;24.33;52.32;99150.63;5039503;28;9954;-80
2021/03/24 01:06:48;;;;;;;;;26.50;21.50;;;;;24.45;52.69;99168.63;5059752;28;9897;-81
2021/03/24 01:09:17;;;;;;;;;20.50;18.00;;;;;24.81;52.33;99234.97;5037240;28;9767;-76
2021/03/24 01:11:45;;;;;;;;;20.00;20.00;;;;;24.65;52.20;99210.72;5037967;28;10262;-79
2021/03/24 01:14:14;;;;;;;;;19.00;17.75;;;;;24.63;52.80;99206.81;5038797;28;9668;-78
2021/03/24 01:16:42;;;;;;;;;17.25;15.50;;;;;24.85;53.01;99240.47;5049198;28;9696;-79
2021/03/24 01:19:11;;;;;;;;;22.75;18.50;;;;;24.40;52.46;99171.59;5033200;28;9892;-77
2021/03/24 01:21:39;;;;;;;;;20.00;16.50;;;;;24.95;53.04;99232.63;5033127;28;9602;-79
2021/03/24 01:24:08;;;;;;;;;20.75;20.75;;;;;25.03;52.21;99241.69;5048141;28;9482;-81
2021/03/24 01:26:36;;;;;;;;;19.25;17.25;;;;;25.04;52.14;99235.94;5066846;28;9684;-76
2021/03/24 01:29:05;;;;;;;;;23.50;19.25;;;;;25.07;52.86;99239.06;5049754;28;9540;-77
2021/03/24 01:31:34;;;;;;;;;17.00;15.50;;;;;25.13;51.78;99238.47;5047896;28;9696;-78
2021/03/24 01:34:02;;;;;;;;;19.33;17.00;;;;;25.24;51.55;99255.69;5048266;28;10378;-77
2021/03/24 01:36:31;;;;;;;;;6.75;5.00;;;;;25.22;52.00;99249.06;5050422;28;9615;-77
2021/03/24 01:38:59;;;;;;;;;19.00;17.00;;;;;25.14;51.80;99231.94;5050187;28;10243;-78
2021/03/24 01:41:28;;;;;;;;;14.75;14.75;;;;;25.29;51.67;99255.41;5052745;28;9458;-78
2021/03/24 01:43:57;;;;;;;;;17.00;16.50;;;;;25.24;51.64;99242.19;5050448;28;9468;-78
2021/03/24 01:46:44;;;;;;;;;16.33;16.33;;;;;25.34;51.51;99254.34;5066417;28;9570;-76
2021/03/24 01:49:18;;;;;;;;;19.33;16.00;;;;;25.32;51.83;99257.41;5042193;28;9382;-76
2021/03/24 01:51:52;;;;;;;;;14.00;14.00;;;;;25.28;52.31;99248.44;5056151;28;9461;-77
2021/03/24 01:54:30;;;;;;;;;9.50;8.25;;;;;25.27;51.56;99246.88;5033344;28;9329;-77
2021/03/24 01:57:07;;;;;;;;;19.67;14.00;;;;;25.28;51.69;99237.66;5032026;28;9490;-76
2021/03/24 01:59:35;;;;;;;;;18.25;14.25;;;;;24.90;51.56;99192.41;5035087;28;9425;-80
2021/03/24 02:02:28;;;;;;;;;15.67;15.67;;;;;25.24;51.82;99247.59;5034654;28;9542;-82
2021/03/24 02:04:57;;;;;;;;;16.50;15.75;;;;;25.30;51.48;99253.50;5037890;28;9307;-79
2021/03/24 02:07:44;;;;;;;;;12.00;12.00;;;;;25.36;51.99;99271.00;5029201;28;10111;-79
2021/03/24 02:10:43;;;;;;;;;16.75;14.75;;;;;25.29;52.01;99254.63;5034575;28;9317;-79
2021/03/24 02:13:27;;;;;;;;;11.00;10.00;;;;;25.35;51.60;99254.00;5037918;28;10166;-79
2021/03/24 02:16:04;;;;;;;;;13.00;12.33;;;;;25.50;51.57;99271.31;5049239;28;10186;-78
2021/03/24 02:18:37;;;;;;;;;15.33;14.00;;;;;25.45;51.84;99252.66;5034423;28;9248;-80
2021/03/24 02:21:09;;;;;;;;;17.00;14.25;;;;;25.56;51.51;99267.19;5031524;28;9317;-77
2021/03/24 02:24:13;;;;;;;;;14.00;12.33;;;;;25.55;52.58;99256.75;5043051;28;9405;-78
2021/03/24 02:27:13;;;;;;;;;14.67;14.67;;;;;25.67;51.92;99264.75;5029847;28;9145;-77
2021/03/24 02:29:49;;;;;;;;;14.00;13.00;;;;;25.72;52.15;99258.28;5038911;28;9240;-81
2021/03/24 02:32:22;;;;;;;;;17.33;14.33;;;;;25.75;51.27;99255.66;5036168;28;9263;-78
2021/03/24 02:34:51;;;;;;;;;16.33;14.67;;;;;25.78;51.22;99259.56;5035142;28;9213;-79
2021/03/24 02:37:20;;;;;;;;;17.00;16.67;;;;;25.75;51.19;99252.16;5033765;28;9424;-81
2021/03/24 02:39:50;;;;;;;;;13.00;12.00;;;;;25.82;51.36;99258.50;5048202;28;10216;-81
2021/03/24 02:42:19;;;;;;;;;14.00;14.00;;;;;25.80;51.21;99244.56;5056129;28;9159;-78
2021/03/24 02:44:47;;;;;;;;;12.67;12.67;;;;;25.86;51.62;99248.53;5060196;28;9063;-82
2021/03/24 02:47:16;;;;;;;;;14.67;13.33;;;;;25.90;51.27;99245.91;5056829;28;9249;-82
2021/03/24 02:49:46;;;;;;;;;12.67;12.00;;;;;25.97;50.91;99249.53;5050735;28;9193;-79
2021/03/24 02:52:15;;;;;;;;;14.67;13.00;;;;;25.97;51.14;99246.84;5053423;28;9234;-82
2021/03/24 02:54:46;;;;;;;;;13.00;13.00;;;;;26.02;51.47;99243.81;5066378;28;9081;-79
2021/03/24 02:57:15;;;;;;;;;12.67;12.67;;;;;26.08;51.59;99247.00;5061450;28;9076;-80
2021/03/24 02:59:44;;;;;;;;;16.00;13.00;;;;;26.12;51.14;99245.16;5057510;28;9176;-80
2021/03/24 03:02:17;;;;;;;;;14.00;12.00;;;;;26.17;51.08;99244.88;5061489;28;9215;-78
2021/03/24 03:05:02;;;;;;;;;14.33;11.00;;;;;26.16;51.64;99237.88;5054301;28;8957;-80
2021/03/24 03:07:52;;;;;;;;;12.67;11.67;;;;;26.26;51.05;99248.13;5048191;28;9085;-79
2021/03/24 03:10:47;;;;;;;;;9.00;9.00;;;;;26.28;51.08;99239.66;5064509;28;9121;-78
2021/03/24 03:13:23;;;;;;;;;13.00;12.00;;;;;26.26;50.67;99228.41;5065200;28;9008;-79
2021/03/24 03:16:05;;;;;;;;;11.67;9.33;;;;;26.25;51.29;99229.56;5056819;28;9093;-80
2021/03/24 03:18:40;;;;;;;;;10.00;10.00;;;;;26.26;51.19;99214.88;5059343;28;8924;-79
2021/03/24 03:21:21;;;;;;;;;15.00;13.33;;;;;26.38;51.62;99222.88;5057472;28;8955;-78
2021/03/24 03:23:55;;;;;;;;;13.00;11.50;;;;;26.41;50.70;99215.94;5057797;28;9081;-79
2021/03/24 03:26:24;;;;;;;;;12.75;11.50;;;;;26.57;50.54;99224.72;5057438;28;8848;-81
2021/03/24 03:28:58;;;;;;;;;11.50;10.00;;;;;26.64;51.23;99224.84;5054884;28;8852;-80
2021/03/24 03:31:32;;;;;;;;;11.00;8.50;;;;;26.64;50.84;99214.81;5056555;28;8840;-80
2021/03/24 03:34:00;;;;;;;;;11.75;11.00;;;;;26.64;50.72;99198.56;5057519;28;9709;-80
2021/03/24 03:36:31;;;;;;;;;10.25;9.00;;;;;26.76;50.58;99205.72;5056202;28;8847;-81
2021/03/24 03:39:01;;;;;;;;;10.33;8.33;;;;;26.81;50.38;99204.63;5054931;28;8852;-78
2021/03/24 03:41:32;;;;;;;;;9.00;9.00;;;;;26.83;50.41;99200.41;5053913;28;8972;-79
2021/03/24 03:44:04;;;;;;;;;8.25;8.25;;;;;26.87;50.15;99195.06;5053838;28;8868;-78
2021/03/24 03:46:36;;;;;;;;;11.00;9.75;;;;;26.85;49.91;99187.28;5052548;28;8973;-78
2021/03/24 03:49:05;;;;;;;;;8.75;8.25;;;;;26.94;50.26;99195.16;5053227;28;8859;-79
2021/03/24 03:51:59;;;;;;;;;3.00;2.25;;;;;26.98;50.12;99189.81;5053385;28;8959;-80
2021/03/24 03:55:25;;;;;;;;;9.25;7.75;;;;;26.99;49.91;99194.88;5053067;28;8878;-78
2021/03/24 03:57:56;;;;;;;;;11.00;9.25;;;;;27.01;49.98;99189.88;5049917;28;8930;-79
2021/03/24 04:00:28;;;;;;;;;8.00;7.75;;;;;27.09;49.89;99191.53;5042729;28;8843;-79
2021/03/24 04:03:17;;;;;;;;;10.75;8.75;;;;;27.14;49.87;99196.63;5043914;28;8848;-78
2021/03/24 04:06:08;;;;;;;;;8.50;8.50;;;;;27.15;50.03;99190.06;5043077;28;8843;-81
2021/03/24 04:08:37;;;;;;;;;8.50;6.50;;;;;27.18;49.65;99188.56;5043200;28;8844;-81
2021/03/24 04:11:08;;;;;;;;;7.00;7.00;;;;;27.21;49.41;99188.63;5046430;28;9574;-81
2021/03/24 04:13:44;;;;;;;;;7.00;6.50;;;;;27.26;49.62;99180.16;5042280;28;8847;-81
2021/03/24 04:16:13;;;;;;;;;7.25;6.00;;;;;27.33;49.72;99167.84;5035788;28;8835;-78
2021/03/24 04:18:48;;;;;;;;;8.00;6.25;;;;;27.41;49.54;99172.19;5033059;28;8847;-80
2021/03/24 04:21:18;;;;;;;;;6.75;5.50;;;;;27.27;49.60;99151.94;5033058;28;8843;-80
2021/03/24 04:23:53;;;;;;;;;6.50;5.50;;;;;27.37;49.25;99163.25;5032440;28;8882;-78
2021/03/24 04:26:28;;;;;;;;;7.25;7.25;;;;;27.46;49.66;99166.44;5042977;28;8985;-79
2021/03/24 04:29:04;;;;;;;;;5.00;4.75;;;;;27.56;49.29;99163.88;5041380;28;8860;-76
2021/03/24 04:31:35;;;;;;;;;7.00;6.50;;;;;27.59;49.21;99156.94;5048629;28;8848;-76
2021/03/24 04:34:04;;;;;;;;;7.75;6.00;;;;;27.60;49.22;99143.03;5043212;28;8833;-76
2021/03/24 04:36:37;;;;;;;;;6.75;5.75;;;;;27.61;49.19;99136.47;5042209;28;8890;-76
2021/03/24 04:39:37;;;;;;;;;6.50;6.50;;;;;27.69;49.06;99137.31;5041088;28;8842;-75
2021/03/24 04:42:19;;;;;;;;;5.50;5.50;;;;;27.67;48.94;99128.78;5040818;28;8955;-76
2021/03/24 04:44:52;;;;;;;;;7.25;4.75;;;;;27.72;49.07;99124.97;5040645;28;8860;-77
2021/03/24 04:47:32;;;;;;;;;7.75;6.75;;;;;27.78;48.98;99124.25;5038635;28;8841;-76
2021/03/24 04:50:19;;;;;;;;;7.00;7.00;;;;;27.85;48.73;99107.28;5038486;28;8959;-77
2021/03/24 04:52:49;;;;;;;;;7.25;6.50;;;;;27.86;48.68;99109.63;5042719;28;8858;-77
2021/03/24 04:55:35;;;;;;;;;5.25;5.25;;;;;27.85;48.77;99094.50;5039833;28;8847;-78
2021/03/24 04:58:06;;;;;;;;;5.00;5.00;;;;;27.85;48.73;99086.38;5040104;28;8821;-77
2021/03/24 05:00:47;;;;;;;;;4.75;4.75;;;;;27.96;48.53;99085.69;5037756;28;8851;-76
2021/03/24 05:03:24;;;;;;;;;8.25;7.25;;;;;28.03;48.50;99080.34;5043700;28;8828;-76
2021/03/24 05:05:57;;;;;;;;;5.25;5.25;;;;;28.11;48.19;99077.31;5039733;28;8839;-77
2021/03/24 05:08:40;;;;;;;;;7.75;7.25;;;;;28.22;48.47;99067.34;5040756;28;8847;-77
2021/03/24 05:11:24;;;;;;;;;4.25;4.25;;;;;28.25;48.07;99063.09;5038755;28;8835;-76
2021/03/24 05:14:01;;;;;;;;;5.00;5.00;;;;;28.24;47.85;99051.47;5036568;28;8839;-77
2021/03/24 05:16:36;;;;;;;;;5.00;5.00;;;;;28.31;48.09;99049.97;5032806;28;8846;-76
2021/03/24 05:19:09;;;;;;;;;7.00;5.25;;;;;28.21;47.94;99033.22;5034720;28;8832;-77
2021/03/24 05:22:11;;;;;;;;;5.25;5.25;;;;;28.39;47.82;99035.28;5039871;28;8855;-77
2021/03/24 05:24:41;;;;;;;;;5.00;5.00;;;;;28.41;47.67;99025.63;5039992;28;9683;-80
2021/03/24 05:27:28;;;;;;;;;9.25;7.25;;;;;28.46;47.36;99014.41;5041061;28;8949;-78
2021/03/24 05:30:07;;;;;;;;;5.50;5.00;;;;;28.54;47.52;99026.84;5034653;28;8871;-76
2021/03/24 05:32:41;;;;;;;;;6.25;6.00;;;;;28.61;47.56;99014.44;5054660;28;8848;-79
2021/03/24 05:35:39;;;;;;;;;6.00;6.00;;;;;28.62;47.42;98995.06;5039906;28;8840;-78
2021/03/24 05:38:16;;;;;;;;;5.00;5.00;;;;;28.72;46.80;98996.28;5030980;28;8876;-78
2021/03/24 05:41:02;;;;;;;;;11.25;11.25;;;;;28.77;47.27;98982.34;5036370;28;8855;-81
2021/03/24 05:44:12;;;;;;;;;7.00;7.00;;;;;28.86;46.99;98982.78;5037703;28;8865;-80
2021/03/24 05:47:01;;;;;;;;;5.50;5.50;;;;;28.92;47.03;98975.06;5040807;28;8872;-79
2021/03/24 05:49:54;;;;;;;;;6.00;6.00;;;;;28.97;46.81;98969.25;5039971;28;8847;-79
2021/03/24 05:52:47;;;;;;;;;5.25;5.25;;;;;29.05;45.77;98962.66;5038318;28;8843;-76
2021/03/24 05:55:48;;;;;;;;;4.00;4.00;;;;;29.14;46.75;98947.56;5035531;28;8838;-78
2021/03/24 05:58:42;;;;;;;;;6.75;6.75;;;;;29.21;46.54;98947.56;5030350;28;8847;-79
2021/03/24 06:01:28;;;;;;;;;5.50;5.50;;;;;29.25;46.05;98944.09;5038583;28;8843;-80
2021/03/24 06:04:36;;;;;;;;;6.00;6.00;;;;;29.29;46.28;98914.97;5041018;28;8860;-75
2021/03/24 06:07:28;;;;;;;;;5.75;5.75;;;;;29.37;45.59;98913.81;5037657;28;8912;-77
2021/03/24 06:10:35;;;;;;;;;5.75;5.75;;;;;29.47;46.63;98908.41;5037110;28;8841;-76
2021/03/24 06:13:38;;;;;;;;;7.00;7.00;;;;;29.61;45.41;98901.41;5036118;28;8858;-76
2021/03/24 06:16:46;;;;;;;;;5.00;5.00;;;;;29.74;45.35;98887.03;5052394;28;8839;-77
2021/03/24 06:19:37;;;;;;;;;6.00;6.00;;;;;29.87;44.77;98884.69;5034338;28;8848;-74
2021/03/24 06:22:33;;;;;;;;;7.00;7.00;;;;;29.94;44.60;98865.59;5044389;28;8945;-76
2021/03/24 06:25:41;;;;;;;;;5.00;5.00;;;;;30.14;45.64;98874.88;5056295;28;8856;-81
2021/03/24 06:28:35;;;;;;;;;6.75;6.75;;;;;30.21;45.15;98857.75;5044392;28;9679;-77
2021/03/24 06:31:28;;;;;;;;;3.75;3.75;;;;;30.28;45.38;98852.28;5043927;28;8910;-79
2021/03/24 06:34:35;;;;;;;;;6.00;6.00;;;;;30.36;44.78;98856.53;5044108;28;8855;-78
2021/03/24 06:37:42;;;;;;;;;6.00;6.00;;;;;30.42;45.09;98846.00;5043816;28;8840;-76
2021/03/24 06:40:45;;;;;;;;;7.00;7.00;;;;;30.52;44.97;98842.44;5044486;28;8870;-74
2021/03/24 06:43:45;;;;;;;;;6.00;6.00;;;;;30.53;45.30;98819.50;5034937;28;9595;-76
2021/03/24 06:46:28;;;;;;;;;5.50;5.50;;;;;30.70;45.01;98828.75;5038870;28;8863;-79
2021/03/24 06:49:31;;;;;;;;;9.25;9.25;;;;;30.75;44.51;98825.63;5042713;28;8854;-76
2021/03/24 06:52:24;;;;;;;;;5.25;5.25;;;;;30.76;45.13;98817.03;5036061;28;8858;-77
2021/03/24 06:55:24;;;;;;;;;5.00;5.00;;;;;30.76;43.32;98802.66;5041001;28;8840;-76
2021/03/24 06:58:24;;;;;;;;;7.25;7.25;;;;;30.81;43.21;98796.78;5036529;28;9544;-76
2021/03/24 07:01:15;;;;;;;;;6.75;6.75;;;;;30.93;43.59;98796.28;5049234;28;9580;-76
2021/03/24 07:04:15;;;;;;;;;8.00;8.00;;;;;31.01;44.79;98781.44;5049582;28;8910;-79
2021/03/24 07:07:09;;;;;;;;;6.25;6.25;;;;;31.13;44.06;98780.19;5050007;28;8850;-79
2021/03/24 07:10:06;;;;;;;;;7.00;7.00;;;;;31.05;44.18;98756.88;5045748;28;8843;-78
2021/03/24 07:12:59;;;;;;;;;6.00;6.00;;;;;31.02;43.48;98763.91;5036519;28;8843;-81
2021/03/24 07:16:06;;;;;;;;;1.00;1.00;;;;;31.08;43.36;98762.31;5045071;28;8840;-80
2021/03/24 07:19:02;;;;;;;;;8.25;7.50;;;;;31.22;43.54;98764.13;5031763;28;8883;-80
2021/03/24 07:22:02;;;;;;;;;6.50;6.50;;;;;31.31;43.52;98758.97;5045913;28;8840;-78
2021/03/24 07:24:59;;;;;;;;;5.75;5.75;;;;;31.28;41.86;98751.59;5031738;28;8863;-80
2021/03/24 07:27:56;;;;;;;;;9.25;9.25;;;;;31.33;42.83;98739.50;5032520;28;8839;-79
2021/03/24 07:30:56;;;;;;;;;9.50;9.50;;;;;31.39;43.93;98738.66;5044105;28;8894;-79
2021/03/24 07:33:52;;;;;;;;;6.25;6.25;;;;;31.45;43.69;98738.97;5033659;28;8847;-79
2021/03/24 07:36:49;;;;;;;;;6.50;6.50;;;;;31.44;43.06;98727.28;5035482;28;8861;-79
2021/03/24 07:39:49;;;;;;;;;8.75;8.75;;;;;31.42;41.56;98728.88;5032693;28;8819;-80
2021/03/24 07:42:51;;;;;;;;;8.50;8.50;;;;;31.44;42.74;98721.84;5032756;28;8932;-79
2021/03/24 07:45:50;;;;;;;;;5.75;5.75;;;;;31.53;42.37;98713.16;5032309;28;8839;-79
2021/03/24 07:48:54;;;;;;;;;7.25;7.25;;;;;31.62;41.41;98708.00;5036338;28;8933;-81
2021/03/24 07:51:56;;;;;;;;;8.00;8.00;;;;;31.76;42.61;98707.84;5035625;28;8862;-80
2021/03/24 07:54:48;;;;;;;;;6.00;6.00;;;;;31.85;43.60;98709.31;5050074;28;8848;-81
2021/03/24 07:57:35;;;;;;;;;6.25;6.25;;;;;31.86;42.66;98705.41;5038519;28;8862;-80
2021/03/24 08:00:30;;;;;;;;;8.25;7.00;;;;;31.76;41.55;98701.63;5049248;28;8862;-77
2021/03/24 08:03:18;;;;;;;;;9.00;7.25;;;;;31.72;41.70;98693.50;5041545;28;8820;-78
2021/03/24 08:06:25;;;;;;;;;6.75;6.75;;;;;31.78;42.81;98688.34;5042192;28;8838;-76
2021/03/24 08:09:18;;;;;;;;;8.00;8.00;;;;;31.82;43.42;98699.22;5036092;28;8844;-77
2021/03/24 08:12:11;;;;;;;;;6.00;6.00;;;;;31.77;40.76;98686.81;5038112;28;8850;-76
2021/03/24 08:15:09;;;;;;;;;7.50;7.50;;;;;31.80;43.24;98683.25;5046592;28;8848;-75
2021/03/24 08:18:02;;;;;;;;;6.50;6.50;;;;;31.86;43.08;98683.56;5049197;28;8902;-76
2021/03/24 08:20:47;;;;;;;;;5.50;5.50;;;;;31.78;41.63;98680.94;5039023;28;8885;-77
2021/03/24 08:23:39;;;;;;;;;6.25;6.25;;;;;31.72;41.93;98660.00;5040583;28;8838;-76
2021/03/24 08:26:26;;;;;;;;;6.50;6.25;;;;;31.75;41.43;98662.66;5042592;28;9538;-76
2021/03/24 08:29:26;;;;;;;;;8.50;8.00;;;;;31.81;42.68;98660.25;5037705;28;8908;-76
2021/03/24 08:32:28;;;;;;;;;7.25;7.25;;;;;31.88;42.55;98651.19;5044201;28;8951;-76
2021/03/24 08:35:25;;;;;;;;;5.00;5.00;;;;;31.90;42.86;98655.06;5040224;28;8852;-77
2021/03/24 08:38:24;;;;;;;;;5.75;5.75;;;;;31.84;41.32;98655.94;5055916;28;8819;-76
2021/03/24 08:41:24;;;;;;;;;6.50;6.50;;;;;31.82;41.76;98655.56;5041727;28;8921;-75
2021/03/24 08:44:32;;;;;;;;;6.25;6.25;;;;;31.82;42.53;98655.56;5045776;28;8937;-76
2021/03/24 08:47:17;;;;;;;;;6.50;6.50;;;;;31.76;42.32;98644.34;5034387;28;8845;-75
2021/03/24 08:49:51;;;;;;;;;8.50;8.50;;;;;31.74;40.96;98644.75;5035853;28;8844;-76
2021/03/24 08:52:50;;;;;;;;;9.00;9.00;;;;;31.81;42.33;98637.66;5038558;28;8827;-77
2021/03/24 08:55:48;;;;;;;;;5.25;5.25;;;;;31.85;42.83;98641.13;5041486;28;8842;-77
2021/03/24 08:58:32;;;;;;;;;6.75;6.75;;;;;31.83;41.18;98635.28;5039717;28;8847;-76
2021/03/24 09:01:34;;;;;;;;;6.50;5.25;;;;;31.80;42.25;98636.88;5038672;28;8847;-75
2021/03/24 09:04:28;;;;;;;;;6.25;6.25;;;;;31.81;41.76;98632.22;5036938;28;8848;-76
2021/03/24 09:07:27;;;;;;;;;6.75;6.75;;;;;31.86;42.27;98632.50;5038236;28;8929;-77
2021/03/24 09:10:24;;;;;;;;;6.25;6.25;;;;;31.90;41.18;98635.97;5033200;28;8869;-76
2021/03/24 09:13:13;;;;;;;;;6.00;6.00;;;;;31.90;42.41;98624.28;5035603;28;8805;-77
2021/03/24 09:16:21;;;;;;;;;8.00;8.00;;;;;31.89;42.01;98630.91;5037472;28;8847;-76
2021/03/24 09:19:12;;;;;;;;;9.25;9.25;;;;;31.79;40.87;98630.66;5032367;28;8835;-76
2021/03/24 09:22:12;;;;;;;;;7.75;7.75;;;;;31.86;42.45;98629.03;5035573;28;8912;-76
2021/03/24 09:25:21;;;;;;;;;11.00;11.00;;;;;31.81;41.47;98622.06;5034422;28;8941;-76
2021/03/24 09:28:13;;;;;;;;;12.75;12.75;;;;;31.76;42.00;98625.25;5037614;28;8989;-77
2021/03/24 09:31:07;;;;;;;;;8.25;8.25;;;;;31.78;41.66;98628.34;5031673;28;8872;-79
2021/03/24 09:34:07;;;;;;;;;11.25;11.25;;;;;31.76;41.96;98622.53;5040251;28;8913;-77
2021/03/24 09:37:04;;;;;;;;;9.75;8.75;;;;;31.69;42.36;98619.91;5043231;28;8848;-79
2021/03/24 09:39:46;;;;;;;;;8.50;8.50;;;;;31.55;40.78;98607.22;5044466;28;8881;-77
2021/03/24 09:42:41;;;;;;;;;9.00;8.25;;;;;31.31;42.15;98584.53;5037018;28;8851;-77
2021/03/24 09:45:21;;;;;;;;;7.00;7.00;;;;;31.56;42.17;98614.19;5038191;28;8856;-75
2021/03/24 09:48:10;;;;;;;;;7.00;7.00;;;;;31.39;42.19;98596.91;5058647;28;8837;-76
2021/03/24 09:50:58;;;;;;;;;7.75;7.75;;;;;31.51;41.93;98628.28;5027716;28;8998;-76
2021/03/24 09:53:30;;;;;;;;;8.50;8.00;;;;;31.43;41.85;98611.25;5033936;28;8847;-75
2021/03/24 09:56:05;;;;;;;;;10.50;10.50;;;;;31.44;42.33;98614.75;5032006;28;8860;-75
2021/03/24 09:58:55;;;;;;;;;8.75;8.75;;;;;31.40;41.98;98603.13;5042088;28;8831;-75
2021/03/24 10:01:34;;;;;;;;;8.25;8.25;;;;;31.41;41.45;98605.44;5042873;28;8837;-76
2021/03/24 10:04:31;;;;;;;;;9.75;9.75;;;;;31.44;41.33;98610.06;5049567;28;8864;-75
2021/03/24 10:07:09;;;;;;;;;6.75;6.75;;;;;31.49;40.90;98608.84;5051636;28;8829;-73
2021/03/24 10:10:17;;;;;;;;;6.75;6.75;;;;;31.54;41.17;98618.53;5046670;28;8831;-74
2021/03/24 10:13:13;;;;;;;;;9.75;9.75;;;;;31.52;41.97;98612.72;5042905;28;8832;-74
2021/03/24 10:15:59;;;;;;;;;6.75;6.75;;;;;31.43;42.04;98613.22;5045775;28;8868;-74
2021/03/24 10:18:43;;;;;;;;;7.75;7.50;;;;;31.41;41.91;98610.13;5045117;28;8827;-74
2021/03/24 10:21:21;;;;;;;;;7.00;7.00;;;;;31.32;41.75;98609.84;5044295;28;8974;-73
2021/03/24 10:24:09;;;;;;;;;3.75;3.75;;;;;31.33;41.58;98614.13;5046062;28;8809;-73
2021/03/24 10:26:54;;;;;;;;;8.00;8.00;;;;;31.39;41.58;98612.47;5044343;28;9556;-80
2021/03/24 10:29:52;;;;;;;;;7.75;7.75;;;;;31.38;41.51;98614.44;5041254;28;8946;-74
2021/03/24 10:32:42;;;;;;;;;7.00;6.00;;;;;31.38;40.82;98624.56;5043070;28;8873;-82
2021/03/24 10:35:48;;;;;;;;;8.50;8.50;;;;;31.36;41.19;98621.47;5047000;28;8856;-74
2021/03/24 10:38:51;;;;;;;;;7.00;7.00;;;;;31.37;40.80;98618.34;5041702;28;8981;-76
2021/03/24 10:41:42;;;;;;;;;7.00;7.00;;;;;31.26;41.40;98604.06;5047441;28;8875;-75
2021/03/24 10:44:43;;;;;;;;;7.25;7.25;;;;;31.35;41.50;98625.38;5045636;28;9017;-76
2021/03/24 10:47:35;;;;;;;;;9.50;9.50;;;;;31.32;41.50;98623.47;5040843;28;8815;-75
2021/03/24 10:50:39;;;;;;;;;9.00;9.00;;;;;31.27;40.81;98615.75;5044310;28;8843;-76
2021/03/24 10:53:30;;;;;;;;;9.25;9.25;;;;;31.21;41.36;98614.66;5032903;28;8870;-74
2021/03/24 10:56:27;;;;;;;;;9.75;9.75;;;;;31.22;40.76;98627.88;5035276;28;8854;-76
2021/03/24 10:59:15;;;;;;;;;9.25;9.25;;;;;31.23;41.03;98636.81;5034591;28;8862;-75
2021/03/24 11:02:02;;;;;;;;;7.50;7.50;;;;;31.18;41.28;98634.56;5034718;28;8859;-75
2021/03/24 11:04:54;;;;;;;;;8.75;8.75;;;;;31.20;41.04;98634.94;5037158;28;9007;-75
2021/03/24 11:07:45;;;;;;;;;10.50;10.50;;;;;31.17;41.16;98633.81;5041872;28;8831;-74
2021/03/24 11:10:52;;;;;;;;;9.00;9.00;;;;;31.14;42.15;98637.34;5047907;28;8960;-75
2021/03/24 11:13:46;;;;;;;;;9.00;9.00;;;;;31.07;42.34;98643.59;5047739;28;8911;-73
2021/03/24 11:16:27;;;;;;;;;8.75;8.75;;;;;31.05;41.77;98645.97;5048410;28;8840;-74
2021/03/24 11:19:26;;;;;;;;;11.25;11.25;;;;;30.97;42.11;98647.22;5048355;28;8824;-75
2021/03/24 11:22:16;;;;;;;;;10.00;10.00;;;;;30.90;41.66;98644.56;5047925;28;8820;-74
2021/03/24 11:25:25;;;;;;;;;9.00;7.50;;;;;30.86;42.42;98654.72;5039449;28;8862;-75
2021/03/24 11:28:03;;;;;;;;;9.75;9.25;;;;;30.81;42.71;98660.59;5047398;28;8867;-75
2021/03/24 11:30:38;;;;;;;;;11.75;11.75;;;;;30.78;42.47;98666.88;5048353;28;8871;-77
2021/03/24 11:33:30;;;;;;;;;9.00;9.00;;;;;30.72;42.40;98665.75;5046997;28;8945;-76
2021/03/24 11:36:17;;;;;;;;;9.25;9.25;;;;;30.64;42.84;98658.81;5052607;28;8840;-75
2021/03/24 11:39:18;;;;;;;;;8.50;8.50;;;;;30.61;42.92;98671.28;5049420;28;8836;-75
2021/03/24 11:41:47;;;;;;;;;10.75;10.75;;;;;30.54;43.07;98676.00;5044505;28;8840;-75
2021/03/24 11:44:19;;;;;;;;;13.00;13.00;;;;;30.45;42.91;98665.56;5046391;28;8816;-74
2021/03/24 11:47:09;;;;;;;;;14.75;14.75;;;;;30.46;42.90;98670.59;5049462;28;8852;-75
2021/03/24 11:50:08;;;;;;;;;13.50;13.50;;;;;30.41;43.49;98673.75;5052681;28;8857;-75
2021/03/24 11:53:00;;;;;;;;;12.25;12.25;;;;;30.37;43.20;98675.72;5045386;28;9034;-76
2021/03/24 11:56:00;;;;;;;;;12.75;12.75;;;;;30.35;43.57;98688.97;5048965;28;8832;-76
2021/03/24 11:59:01;;;;;;;;;12.25;12.25;;;;;30.29;43.58;98689.78;5041597;28;8851;-76
2021/03/24 12:02:01;;;;;;;;;11.50;11.50;;;;;30.27;43.94;98692.13;5045646;28;8834;-76
2021/03/24 12:05:08;;;;;;;;;10.00;10.00;;;;;30.20;44.10;98695.69;5046438;28;8865;-75
2021/03/24 12:07:54;;;;;;;;;11.00;11.00;;;;;30.16;44.31;98703.88;5049716;28;9600;-76
2021/03/24 12:10:31;;;;;;;;;12.50;12.50;;;;;30.16;44.51;98716.69;5048529;28;8917;-77
2021/03/24 12:13:20;;;;;;;;;13.50;12.75;;;;;30.11;44.74;98711.66;5046775;28;8916;-77
2021/03/24 12:16:12;;;;;;;;;12.00;12.00;;;;;30.08;44.76;98720.63;5044889;28;8839;-77
2021/03/24 12:18:52;;;;;;;;;11.25;11.25;;;;;30.06;44.85;98718.31;5045842;28;8883;-78
2021/03/24 12:21:31;;;;;;;;;11.25;11.25;;;;;30.05;44.94;98724.13;5043167;28;9569;-77
2021/03/24 12:24:28;;;;;;;;;11.75;11.75;;;;;29.98;44.64;98724.16;5045275;28;8819;-77
2021/03/24 12:27:14;;;;;;;;;14.75;14.75;;;;;30.01;44.60;98731.53;5043310;28;8851;-76
2021/03/24 12:30:07;;;;;;;;;14.25;13.00;;;;;29.98;44.86;98727.63;5043777;28;8859;-78
2021/03/24 12:32:38;;;;;;;;;16.00;16.00;;;;;29.96;45.15;98738.13;5040929;28;8850;-77
2021/03/24 12:35:29;;;;;;;;;11.00;10.00;;;;;29.84;45.11;98733.19;5041795;28;8824;-77
2021/03/24 12:38:11;;;;;;;;;15.00;15.00;;;;;29.86;45.05;98747.16;5039428;28;8863;-76
2021/03/24 12:41:00;;;;;;;;;17.50;17.50;;;;;29.89;44.89;98759.97;5043212;28;8886;-77
2021/03/24 12:43:37;;;;;;;;;18.00;18.00;;;;;29.79;45.21;98750.69;5039999;28;8843;-76
2021/03/24 12:46:21;;;;;;;;;13.75;13.75;;;;;29.84;44.11;98766.59;5039982;28;8971;-76
2021/03/24 12:48:52;;;;;;;;;21.25;21.25;;;;;29.57;44.26;98726.69;5047999;28;9488;-75
2021/03/24 12:51:32;;;;;;;;;14.00;14.00;;;;;29.74;44.62;98769.34;5038297;28;8945;-75
2021/03/24 12:54:04;;;;;;;;;18.75;18.75;;;;;29.71;45.32;98768.19;5039581;28;8851;-76
2021/03/24 12:57:07;;;;;;;;;14.00;14.00;;;;;29.72;45.61;98775.16;5039104;28;8827;-74